DKH1791 ZSNJ-ZSAM
Flight info
| Callsign | DKH1791 |
|---|---|
| Flight time | N/A |
| Altitude | 25600 |
| Route | TES61X TESIG A470 ENVEN ENVEN8X |
| Aircraft | A20N/M-SDE2E3FGHIRWXY/LB1 |
Departure
| Time | 2026-05-08 12:48 |
|---|---|
| Airport | Nanjing Lukou International Airport (ZSNJ) |
Arrival
| Time | N/A |
|---|---|
| Airport | Xiamen Gaoqi International Airport (ZSAM) |
| Time | Latitude | Longitude | Altitude | Speed | Heading |
|---|---|---|---|---|---|
| 2026-05-08 12:14 | 31.73466 | 118.87900 | 57 ft | 0 kts | 57° |
| 2026-05-08 12:31 | 31.73463 | 118.87894 | 57 ft | 3 kts | 57° |
| 2026-05-08 12:31 | 31.73449 | 118.87868 | 57 ft | 3 kts | 57° |
| 2026-05-08 12:31 | 31.73440 | 118.87840 | 57 ft | 3 kts | 94° |
| 2026-05-08 12:32 | 31.73452 | 118.87816 | 57 ft | 3 kts | 146° |
| 2026-05-08 12:32 | 31.73454 | 118.87814 | 57 ft | 0 kts | 148° |
| 2026-05-08 12:36 | 31.73451 | 118.87817 | 56 ft | 1 kts | 148° |
| 2026-05-08 12:36 | 31.73438 | 118.87826 | 56 ft | 3 kts | 148° |
| 2026-05-08 12:36 | 31.73415 | 118.87846 | 56 ft | 5 kts | 140° |
| 2026-05-08 12:36 | 31.73381 | 118.87874 | 56 ft | 6 kts | 149° |
| 2026-05-08 12:37 | 31.73336 | 118.87906 | 56 ft | 8 kts | 160° |
| 2026-05-08 12:37 | 31.73286 | 118.87871 | 56 ft | 10 kts | 237° |
| 2026-05-08 12:37 | 31.73246 | 118.87799 | 56 ft | 11 kts | 238° |
| 2026-05-08 12:37 | 31.73204 | 118.87719 | 57 ft | 11 kts | 239° |
| 2026-05-08 12:38 | 31.73158 | 118.87633 | 56 ft | 12 kts | 238° |
| 2026-05-08 12:38 | 31.73111 | 118.87545 | 57 ft | 13 kts | 238° |
| 2026-05-08 12:38 | 31.73060 | 118.87450 | 56 ft | 13 kts | 237° |
| 2026-05-08 12:38 | 31.73009 | 118.87354 | 56 ft | 14 kts | 238° |
| 2026-05-08 12:39 | 31.72952 | 118.87247 | 57 ft | 16 kts | 239° |
| 2026-05-08 12:39 | 31.72888 | 118.87128 | 56 ft | 17 kts | 237° |
| 2026-05-08 12:39 | 31.72823 | 118.87004 | 56 ft | 18 kts | 238° |
| 2026-05-08 12:39 | 31.72754 | 118.86877 | 57 ft | 18 kts | 238° |
| 2026-05-08 12:40 | 31.72699 | 118.86774 | 56 ft | 14 kts | 236° |
| 2026-05-08 12:40 | 31.72650 | 118.86683 | 56 ft | 10 kts | 238° |
| 2026-05-08 12:40 | 31.72609 | 118.86606 | 56 ft | 11 kts | 238° |
| 2026-05-08 12:40 | 31.72579 | 118.86549 | 56 ft | 7 kts | 238° |
| 2026-05-08 12:41 | 31.72596 | 118.86500 | 57 ft | 8 kts | 332° |
| 2026-05-08 12:41 | 31.72659 | 118.86456 | 56 ft | 12 kts | 329° |
| 2026-05-08 12:41 | 31.72751 | 118.86393 | 56 ft | 17 kts | 330° |
| 2026-05-08 12:41 | 31.72858 | 118.86310 | 56 ft | 19 kts | 328° |
| 2026-05-08 12:42 | 31.72977 | 118.86223 | 56 ft | 20 kts | 328° |
| 2026-05-08 12:42 | 31.73103 | 118.86130 | 56 ft | 21 kts | 328° |
| 2026-05-08 12:42 | 31.73234 | 118.86034 | 56 ft | 22 kts | 328° |
| 2026-05-08 12:42 | 31.73359 | 118.85944 | 56 ft | 21 kts | 328° |
| 2026-05-08 12:43 | 31.73483 | 118.85853 | 56 ft | 21 kts | 328° |
| 2026-05-08 12:43 | 31.73608 | 118.85764 | 57 ft | 19 kts | 330° |
| 2026-05-08 12:43 | 31.73699 | 118.85696 | 56 ft | 9 kts | 326° |
| 2026-05-08 12:43 | 31.73701 | 118.85626 | 57 ft | 10 kts | 238° |
| 2026-05-08 12:44 | 31.73656 | 118.85543 | 56 ft | 13 kts | 238° |
| 2026-05-08 12:44 | 31.73605 | 118.85444 | 57 ft | 15 kts | 239° |
| 2026-05-08 12:44 | 31.73544 | 118.85332 | 56 ft | 17 kts | 238° |
| 2026-05-08 12:44 | 31.73478 | 118.85209 | 56 ft | 18 kts | 238° |
| 2026-05-08 12:45 | 31.73406 | 118.85075 | 56 ft | 20 kts | 237° |
| 2026-05-08 12:45 | 31.73331 | 118.84933 | 56 ft | 20 kts | 239° |
| 2026-05-08 12:45 | 31.73261 | 118.84802 | 56 ft | 15 kts | 237° |
| 2026-05-08 12:45 | 31.73223 | 118.84727 | 56 ft | 8 kts | 252° |
| 2026-05-08 12:46 | 31.73257 | 118.84676 | 56 ft | 9 kts | 327° |
| 2026-05-08 12:46 | 31.73315 | 118.84634 | 57 ft | 10 kts | 330° |
| 2026-05-08 12:46 | 31.73369 | 118.84616 | 57 ft | 7 kts | 34° |
| 2026-05-08 12:46 | 31.73389 | 118.84645 | 56 ft | 0 kts | 59° |
| 2026-05-08 12:47 | 31.73416 | 118.84698 | 56 ft | 32 kts | 58° |
| 2026-05-08 12:47 | 31.73671 | 118.85173 | 57 ft | 103 kts | 58° |
| 2026-05-08 12:47 | 31.74171 | 118.86104 | 58 ft | 160 kts | 59° |
| 2026-05-08 12:47 | 31.74788 | 118.87235 | 571 ft | 163 kts | 60° |
| 2026-05-08 12:48 | 31.75368 | 118.88319 | 1281 ft | 159 kts | 63° |
| 2026-05-08 12:48 | 31.75946 | 118.89416 | 1918 ft | 160 kts | 63° |
| 2026-05-08 12:48 | 31.76549 | 118.90568 | 2334 ft | 173 kts | 63° |
| 2026-05-08 12:48 | 31.77211 | 118.91827 | 2716 ft | 190 kts | 62° |
| 2026-05-08 12:49 | 31.77933 | 118.93191 | 3192 ft | 201 kts | 61° |
| 2026-05-08 12:49 | 31.78682 | 118.94593 | 3726 ft | 210 kts | 61° |
| 2026-05-08 12:49 | 31.79490 | 118.96110 | 4095 ft | 232 kts | 60° |
| 2026-05-08 12:49 | 31.80164 | 118.97837 | 4770 ft | 236 kts | 83° |
| 2026-05-08 12:50 | 31.79988 | 118.99702 | 5649 ft | 235 kts | 112° |
| 2026-05-08 12:50 | 31.79037 | 119.01243 | 6399 ft | 242 kts | 140° |
| 2026-05-08 12:50 | 31.77497 | 119.02061 | 7119 ft | 252 kts | 171° |
| 2026-05-08 12:50 | 31.75748 | 119.01823 | 7827 ft | 261 kts | 202° |
| 2026-05-08 12:51 | 31.74142 | 119.00817 | 8568 ft | 266 kts | 208° |
| 2026-05-08 12:51 | 31.70856 | 118.98679 | 9999 ft | 274 kts | 209° |
| 2026-05-08 12:51 | 31.69107 | 118.97730 | 10605 ft | 281 kts | 193° |
| 2026-05-08 12:52 | 31.67131 | 118.97762 | 11023 ft | 295 kts | 162° |
| 2026-05-08 12:52 | 31.63569 | 119.00494 | 11837 ft | 324 kts | 142° |
| 2026-05-08 12:52 | 31.61727 | 119.02124 | 12149 ft | 341 kts | 142° |
| 2026-05-08 12:53 | 31.59759 | 119.03829 | 12457 ft | 359 kts | 143° |
| 2026-05-08 12:53 | 31.57691 | 119.05606 | 12754 ft | 375 kts | 143° |
| 2026-05-08 12:53 | 31.55579 | 119.07447 | 13114 ft | 388 kts | 142° |
| 2026-05-08 12:53 | 31.53391 | 119.09367 | 13683 ft | 394 kts | 143° |
| 2026-05-08 12:54 | 31.51226 | 119.11269 | 14491 ft | 392 kts | 143° |
| 2026-05-08 12:54 | 31.49030 | 119.13197 | 15206 ft | 393 kts | 143° |
| 2026-05-08 12:54 | 31.46830 | 119.15124 | 15754 ft | 398 kts | 144° |
| 2026-05-08 12:54 | 31.44617 | 119.17061 | 16286 ft | 403 kts | 144° |
| 2026-05-08 12:55 | 31.42363 | 119.19031 | 16810 ft | 408 kts | 144° |
| 2026-05-08 12:55 | 31.40053 | 119.21047 | 17351 ft | 413 kts | 145° |
| 2026-05-08 12:55 | 31.37777 | 119.23037 | 17853 ft | 417 kts | 145° |
| 2026-05-08 12:55 | 31.35428 | 119.25086 | 18375 ft | 421 kts | 146° |
| 2026-05-08 12:56 | 31.33083 | 119.27130 | 18888 ft | 424 kts | 146° |
| 2026-05-08 12:56 | 31.30699 | 119.29208 | 19376 ft | 428 kts | 146° |
| 2026-05-08 12:56 | 31.28308 | 119.31289 | 19857 ft | 432 kts | 146° |
| 2026-05-08 12:56 | 31.25888 | 119.33395 | 20308 ft | 436 kts | 147° |
| 2026-05-08 12:57 | 31.23456 | 119.35511 | 20765 ft | 439 kts | 147° |
| 2026-05-08 12:57 | 31.20992 | 119.37650 | 21259 ft | 442 kts | 148° |
| 2026-05-08 12:57 | 31.18544 | 119.39780 | 21826 ft | 442 kts | 148° |
| 2026-05-08 12:57 | 31.16071 | 119.41939 | 22304 ft | 445 kts | 148° |
| 2026-05-08 12:58 | 31.13572 | 119.44123 | 22725 ft | 450 kts | 148° |
| 2026-05-08 12:58 | 31.11067 | 119.46305 | 23182 ft | 453 kts | 148° |
| 2026-05-08 12:58 | 31.08538 | 119.48512 | 23626 ft | 456 kts | 149° |
| 2026-05-08 12:58 | 31.06014 | 119.50715 | 24086 ft | 459 kts | 149° |
| 2026-05-08 12:59 | 31.03437 | 119.52959 | 24531 ft | 462 kts | 149° |
| 2026-05-08 12:59 | 31.00861 | 119.55203 | 24986 ft | 465 kts | 149° |
| 2026-05-08 12:59 | 30.99290 | 119.56571 | 25292 ft | 466 kts | 149° |
| 2026-05-08 12:59 | 30.96682 | 119.58843 | 25738 ft | 468 kts | 149° |
| 2026-05-08 13:00 | 30.94088 | 119.61099 | 26151 ft | 471 kts | 149° |
| 2026-05-08 13:00 | 30.91462 | 119.63383 | 26571 ft | 473 kts | 149° |
| 2026-05-08 13:00 | 30.88786 | 119.65703 | 26747 ft | 476 kts | 150° |
| 2026-05-08 13:00 | 30.86143 | 119.68001 | 26747 ft | 475 kts | 150° |
| 2026-05-08 13:01 | 30.83495 | 119.70305 | 26751 ft | 474 kts | 150° |
| 2026-05-08 13:01 | 30.80859 | 119.72598 | 26756 ft | 472 kts | 150° |
| 2026-05-08 13:01 | 30.78238 | 119.74873 | 26760 ft | 474 kts | 150° |
| 2026-05-08 13:01 | 30.75581 | 119.77170 | 26762 ft | 474 kts | 150° |
| 2026-05-08 13:02 | 30.72940 | 119.79452 | 26761 ft | 475 kts | 150° |
| 2026-05-08 13:02 | 30.70291 | 119.81738 | 26762 ft | 474 kts | 150° |
| 2026-05-08 13:02 | 30.67649 | 119.84010 | 26767 ft | 473 kts | 150° |
| 2026-05-08 13:02 | 30.65014 | 119.86266 | 26770 ft | 474 kts | 150° |
| 2026-05-08 13:03 | 30.62364 | 119.88535 | 26770 ft | 474 kts | 150° |
| 2026-05-08 13:03 | 30.59699 | 119.90816 | 26771 ft | 474 kts | 150° |
| 2026-05-08 13:03 | 30.57071 | 119.93138 | 26766 ft | 473 kts | 149° |
| 2026-05-08 13:03 | 30.54486 | 119.95467 | 26773 ft | 471 kts | 148° |
| 2026-05-08 13:04 | 30.51906 | 119.97790 | 26774 ft | 468 kts | 149° |
| 2026-05-08 13:04 | 30.49350 | 120.00083 | 26784 ft | 468 kts | 149° |
| 2026-05-08 13:04 | 30.46646 | 120.02123 | 26752 ft | 459 kts | 165° |
| 2026-05-08 13:04 | 30.43650 | 120.03041 | 26781 ft | 437 kts | 184° |
| 2026-05-08 13:05 | 30.40665 | 120.02811 | 26789 ft | 418 kts | 202° |
| 2026-05-08 13:05 | 30.38026 | 120.01627 | 26793 ft | 400 kts | 217° |
| 2026-05-08 13:05 | 30.35653 | 120.00011 | 26796 ft | 402 kts | 218° |
| 2026-05-08 13:05 | 30.33235 | 119.98364 | 26798 ft | 402 kts | 218° |
| 2026-05-08 13:06 | 30.30831 | 119.96741 | 26800 ft | 402 kts | 217° |
| 2026-05-08 13:06 | 30.28392 | 119.95106 | 26801 ft | 402 kts | 218° |
| 2026-05-08 13:06 | 30.25967 | 119.93486 | 26795 ft | 403 kts | 218° |
| 2026-05-08 13:06 | 30.23554 | 119.91879 | 26790 ft | 402 kts | 217° |
| 2026-05-08 13:07 | 30.21123 | 119.90262 | 26788 ft | 403 kts | 217° |
| 2026-05-08 13:07 | 30.18680 | 119.88641 | 26795 ft | 404 kts | 217° |
| 2026-05-08 13:07 | 30.16262 | 119.87035 | 26794 ft | 404 kts | 218° |
| 2026-05-08 13:07 | 30.13808 | 119.85407 | 26798 ft | 404 kts | 218° |
| 2026-05-08 13:08 | 30.11384 | 119.83803 | 26794 ft | 403 kts | 217° |
| 2026-05-08 13:08 | 30.08952 | 119.82191 | 26801 ft | 402 kts | 217° |
| 2026-05-08 13:08 | 30.06511 | 119.80573 | 26794 ft | 403 kts | 218° |
| 2026-05-08 13:08 | 30.04101 | 119.78975 | 26795 ft | 402 kts | 218° |
| 2026-05-08 13:09 | 30.01674 | 119.77344 | 26797 ft | 403 kts | 218° |
| 2026-05-08 13:09 | 29.99242 | 119.75704 | 26799 ft | 403 kts | 218° |
| 2026-05-08 13:09 | 29.96839 | 119.74087 | 26797 ft | 403 kts | 218° |
| 2026-05-08 13:09 | 29.94407 | 119.72448 | 26796 ft | 404 kts | 218° |
| 2026-05-08 13:10 | 29.91996 | 119.70828 | 26802 ft | 404 kts | 218° |
| 2026-05-08 13:10 | 29.89562 | 119.69197 | 26797 ft | 403 kts | 217° |
| 2026-05-08 13:10 | 29.87016 | 119.67785 | 26789 ft | 412 kts | 209° |
| 2026-05-08 13:10 | 29.84221 | 119.66797 | 26784 ft | 420 kts | 201° |
| 2026-05-08 13:11 | 29.81329 | 119.66285 | 26779 ft | 429 kts | 193° |
| 2026-05-08 13:11 | 29.78342 | 119.66083 | 26787 ft | 432 kts | 191° |
| 2026-05-08 13:11 | 29.75315 | 119.65930 | 26783 ft | 431 kts | 191° |
| 2026-05-08 13:11 | 29.72327 | 119.65745 | 26782 ft | 432 kts | 192° |
| 2026-05-08 13:12 | 29.69325 | 119.65535 | 26782 ft | 432 kts | 192° |
| 2026-05-08 13:12 | 29.66306 | 119.65322 | 26781 ft | 432 kts | 192° |
| 2026-05-08 13:12 | 29.63342 | 119.65115 | 26780 ft | 433 kts | 191° |
| 2026-05-08 13:12 | 29.60625 | 119.65018 | 26784 ft | 433 kts | 189° |
| 2026-05-08 13:13 | 29.57645 | 119.64943 | 26784 ft | 433 kts | 189° |
| 2026-05-08 13:13 | 29.54608 | 119.64867 | 26784 ft | 433 kts | 190° |
| 2026-05-08 13:13 | 29.51623 | 119.64722 | 26782 ft | 431 kts | 191° |
| 2026-05-08 13:13 | 29.48598 | 119.64532 | 26785 ft | 431 kts | 191° |
| 2026-05-08 13:14 | 29.45603 | 119.64336 | 26785 ft | 432 kts | 191° |
| 2026-05-08 13:14 | 29.42722 | 119.64148 | 26783 ft | 432 kts | 191° |
| 2026-05-08 13:14 | 29.39700 | 119.63958 | 26785 ft | 432 kts | 191° |
| 2026-05-08 13:14 | 29.36720 | 119.63769 | 26783 ft | 432 kts | 191° |
| 2026-05-08 13:15 | 29.33719 | 119.63583 | 26784 ft | 432 kts | 190° |
| 2026-05-08 13:15 | 29.30707 | 119.63398 | 26789 ft | 432 kts | 191° |
| 2026-05-08 13:15 | 29.27684 | 119.63213 | 26787 ft | 433 kts | 191° |
| 2026-05-08 13:15 | 29.24694 | 119.63027 | 26786 ft | 432 kts | 190° |
| 2026-05-08 13:16 | 29.21674 | 119.62843 | 26788 ft | 431 kts | 191° |
| 2026-05-08 13:16 | 29.18662 | 119.62660 | 26787 ft | 432 kts | 190° |
| 2026-05-08 13:16 | 29.15684 | 119.62479 | 26789 ft | 431 kts | 190° |
| 2026-05-08 13:16 | 29.12687 | 119.62296 | 26790 ft | 431 kts | 191° |
| 2026-05-08 13:17 | 29.09666 | 119.62110 | 26788 ft | 433 kts | 190° |
| 2026-05-08 13:17 | 29.06658 | 119.61925 | 26787 ft | 433 kts | 190° |
| 2026-05-08 13:17 | 29.03648 | 119.61740 | 26789 ft | 432 kts | 191° |
| 2026-05-08 13:17 | 29.00660 | 119.61556 | 26790 ft | 432 kts | 190° |
| 2026-05-08 13:18 | 28.97661 | 119.61369 | 26788 ft | 433 kts | 190° |
| 2026-05-08 13:18 | 28.94636 | 119.61180 | 26785 ft | 434 kts | 190° |
| 2026-05-08 13:18 | 28.91624 | 119.60992 | 26785 ft | 434 kts | 190° |
| 2026-05-08 13:18 | 28.88953 | 119.60827 | 26778 ft | 434 kts | 190° |
| 2026-05-08 13:19 | 28.85943 | 119.60643 | 26778 ft | 434 kts | 191° |
| 2026-05-08 13:19 | 28.82910 | 119.60458 | 26775 ft | 433 kts | 190° |
| 2026-05-08 13:19 | 28.79911 | 119.60273 | 26773 ft | 433 kts | 190° |
| 2026-05-08 13:19 | 28.77809 | 119.60144 | 26768 ft | 433 kts | 190° |
| 2026-05-08 13:20 | 28.74813 | 119.59959 | 26770 ft | 433 kts | 190° |
| 2026-05-08 13:20 | 28.71799 | 119.59772 | 26765 ft | 433 kts | 191° |
| 2026-05-08 13:20 | 28.68803 | 119.59586 | 26764 ft | 432 kts | 191° |
| 2026-05-08 13:20 | 28.65774 | 119.59397 | 26762 ft | 433 kts | 191° |
| 2026-05-08 13:21 | 28.62781 | 119.59212 | 26767 ft | 433 kts | 191° |
| 2026-05-08 13:21 | 28.59710 | 119.59016 | 26770 ft | 444 kts | 190° |
| 2026-05-08 13:21 | 28.56615 | 119.58819 | 26766 ft | 455 kts | 190° |
| 2026-05-08 13:21 | 28.53400 | 119.58615 | 26762 ft | 466 kts | 190° |
| 2026-05-08 13:22 | 28.50158 | 119.58416 | 26761 ft | 470 kts | 189° |
| 2026-05-08 13:22 | 28.46864 | 119.58218 | 26762 ft | 471 kts | 189° |
| 2026-05-08 13:22 | 28.43600 | 119.58029 | 26766 ft | 471 kts | 189° |
| 2026-05-08 13:22 | 28.40302 | 119.57848 | 26763 ft | 471 kts | 189° |
| 2026-05-08 13:23 | 28.37037 | 119.57672 | 26758 ft | 471 kts | 189° |
| 2026-05-08 13:23 | 28.33772 | 119.57494 | 26762 ft | 472 kts | 190° |
| 2026-05-08 13:23 | 28.30504 | 119.57313 | 26759 ft | 472 kts | 189° |
| 2026-05-08 13:23 | 28.27219 | 119.57132 | 26766 ft | 471 kts | 189° |
| 2026-05-08 13:24 | 28.23911 | 119.56950 | 26762 ft | 471 kts | 189° |
| 2026-05-08 13:24 | 28.20667 | 119.56769 | 26762 ft | 471 kts | 189° |
| 2026-05-08 13:24 | 28.17365 | 119.56583 | 26767 ft | 471 kts | 189° |
| 2026-05-08 13:24 | 28.14110 | 119.56403 | 26762 ft | 472 kts | 189° |
| 2026-05-08 13:25 | 28.10802 | 119.56222 | 26762 ft | 472 kts | 189° |
| 2026-05-08 13:25 | 28.07516 | 119.56147 | 26766 ft | 474 kts | 187° |
| 2026-05-08 13:25 | 28.04234 | 119.56097 | 26763 ft | 475 kts | 188° |
| 2026-05-08 13:25 | 28.00924 | 119.56043 | 26761 ft | 475 kts | 187° |
| 2026-05-08 13:26 | 27.97605 | 119.55991 | 26765 ft | 475 kts | 188° |
| 2026-05-08 13:26 | 27.90986 | 119.55894 | 26753 ft | 474 kts | 187° |
| 2026-05-08 13:26 | 27.87674 | 119.55872 | 26759 ft | 475 kts | 187° |
| 2026-05-08 13:27 | 27.84367 | 119.55859 | 26759 ft | 475 kts | 187° |
| 2026-05-08 13:27 | 27.81046 | 119.55846 | 26761 ft | 476 kts | 187° |
| 2026-05-08 13:27 | 27.77730 | 119.55832 | 26761 ft | 476 kts | 187° |
| 2026-05-08 13:27 | 27.74408 | 119.55814 | 26759 ft | 476 kts | 187° |
| 2026-05-08 13:28 | 27.71108 | 119.55797 | 26753 ft | 477 kts | 187° |
| 2026-05-08 13:28 | 27.67758 | 119.55778 | 26757 ft | 477 kts | 187° |
| 2026-05-08 13:28 | 27.64431 | 119.55758 | 26754 ft | 477 kts | 187° |
| 2026-05-08 13:28 | 27.61120 | 119.55738 | 26759 ft | 478 kts | 187° |
| 2026-05-08 13:29 | 27.57804 | 119.55718 | 26754 ft | 478 kts | 187° |
| 2026-05-08 13:29 | 27.54483 | 119.55698 | 26757 ft | 479 kts | 187° |
| 2026-05-08 13:29 | 27.51129 | 119.55676 | 26754 ft | 479 kts | 187° |
| 2026-05-08 13:29 | 27.47804 | 119.55656 | 26762 ft | 479 kts | 187° |
| 2026-05-08 13:30 | 27.44214 | 119.55635 | 26762 ft | 480 kts | 187° |
| 2026-05-08 13:30 | 27.40843 | 119.55623 | 26756 ft | 480 kts | 187° |
| 2026-05-08 13:30 | 27.37507 | 119.55618 | 26755 ft | 480 kts | 187° |
| 2026-05-08 13:30 | 27.34174 | 119.55615 | 26759 ft | 480 kts | 187° |
| 2026-05-08 13:31 | 27.30836 | 119.55611 | 26755 ft | 480 kts | 187° |
| 2026-05-08 13:31 | 27.27464 | 119.55606 | 26751 ft | 481 kts | 187° |
| 2026-05-08 13:31 | 27.24151 | 119.55597 | 26756 ft | 486 kts | 187° |
| 2026-05-08 13:31 | 27.20696 | 119.55573 | 26751 ft | 493 kts | 187° |
| 2026-05-08 13:32 | 27.17289 | 119.55550 | 26749 ft | 495 kts | 187° |
| 2026-05-08 13:32 | 27.13841 | 119.55528 | 26746 ft | 496 kts | 187° |
| 2026-05-08 13:32 | 27.10390 | 119.55508 | 26747 ft | 496 kts | 187° |
| 2026-05-08 13:32 | 27.06913 | 119.55487 | 26743 ft | 497 kts | 187° |
| 2026-05-08 13:33 | 27.03445 | 119.55466 | 26745 ft | 496 kts | 187° |
| 2026-05-08 13:33 | 26.99994 | 119.55444 | 26744 ft | 497 kts | 187° |
| 2026-05-08 13:33 | 26.95950 | 119.55418 | 26743 ft | 497 kts | 187° |
| 2026-05-08 13:33 | 26.92457 | 119.55396 | 26744 ft | 496 kts | 187° |
| 2026-05-08 13:34 | 26.89013 | 119.55373 | 26745 ft | 497 kts | 187° |
| 2026-05-08 13:34 | 26.85558 | 119.55351 | 26746 ft | 497 kts | 187° |
| 2026-05-08 13:34 | 26.82063 | 119.55331 | 26744 ft | 497 kts | 187° |
| 2026-05-08 13:34 | 26.78640 | 119.55310 | 26742 ft | 498 kts | 187° |
| 2026-05-08 13:35 | 26.75142 | 119.55289 | 26741 ft | 498 kts | 187° |
| 2026-05-08 13:35 | 26.71683 | 119.55267 | 26742 ft | 498 kts | 187° |
| 2026-05-08 13:35 | 26.68216 | 119.55246 | 26740 ft | 498 kts | 187° |
| 2026-05-08 13:35 | 26.64732 | 119.55222 | 26742 ft | 499 kts | 187° |
| 2026-05-08 13:36 | 26.61280 | 119.55200 | 26741 ft | 498 kts | 187° |
| 2026-05-08 13:36 | 26.57803 | 119.55178 | 26742 ft | 498 kts | 187° |
| 2026-05-08 13:36 | 26.54334 | 119.55154 | 26742 ft | 499 kts | 187° |
| 2026-05-08 13:37 | 26.47943 | 119.55110 | 26736 ft | 499 kts | 187° |
| 2026-05-08 13:37 | 26.44456 | 119.55087 | 26738 ft | 499 kts | 187° |
| 2026-05-08 13:37 | 26.40986 | 119.55064 | 26739 ft | 499 kts | 187° |
| 2026-05-08 13:37 | 26.37548 | 119.55042 | 26737 ft | 499 kts | 187° |
| 2026-05-08 13:38 | 26.34057 | 119.55004 | 26735 ft | 499 kts | 187° |
| 2026-05-08 13:38 | 26.30586 | 119.54961 | 26735 ft | 500 kts | 187° |
| 2026-05-08 13:38 | 26.27114 | 119.54912 | 26734 ft | 499 kts | 188° |
| 2026-05-08 13:38 | 26.23662 | 119.54658 | 26734 ft | 494 kts | 193° |
| 2026-05-08 13:39 | 26.20260 | 119.54077 | 26733 ft | 489 kts | 198° |
| 2026-05-08 13:39 | 26.16971 | 119.53185 | 26737 ft | 485 kts | 202° |
| 2026-05-08 13:39 | 26.13779 | 119.52125 | 26733 ft | 466 kts | 204° |
| 2026-05-08 13:39 | 26.10764 | 119.51096 | 26737 ft | 446 kts | 204° |
| 2026-05-08 13:40 | 26.07614 | 119.50013 | 26734 ft | 425 kts | 204° |
| 2026-05-08 13:40 | 26.04840 | 119.49058 | 26730 ft | 408 kts | 205° |
| 2026-05-08 13:40 | 26.02159 | 119.48135 | 26736 ft | 401 kts | 205° |
| 2026-05-08 13:40 | 25.99516 | 119.47222 | 26736 ft | 400 kts | 205° |
| 2026-05-08 13:41 | 25.96863 | 119.46310 | 26736 ft | 401 kts | 205° |
| 2026-05-08 13:41 | 25.94041 | 119.45342 | 26735 ft | 401 kts | 205° |
| 2026-05-08 13:41 | 25.91365 | 119.44428 | 26734 ft | 401 kts | 205° |
| 2026-05-08 13:41 | 25.88699 | 119.43520 | 26734 ft | 401 kts | 205° |
| 2026-05-08 13:42 | 25.86015 | 119.42613 | 26731 ft | 401 kts | 204° |
| 2026-05-08 13:42 | 25.83346 | 119.41711 | 26729 ft | 401 kts | 204° |
| 2026-05-08 13:42 | 25.80687 | 119.40811 | 26527 ft | 400 kts | 204° |
| 2026-05-08 13:42 | 25.78030 | 119.39909 | 26370 ft | 398 kts | 205° |
| 2026-05-08 13:43 | 25.75510 | 119.38795 | 26215 ft | 389 kts | 214° |
| 2026-05-08 13:43 | 25.73217 | 119.37251 | 26037 ft | 376 kts | 223° |
| 2026-05-08 13:43 | 25.71277 | 119.35422 | 25721 ft | 362 kts | 231° |
| 2026-05-08 13:43 | 25.69555 | 119.33431 | 25410 ft | 355 kts | 233° |
| 2026-05-08 13:44 | 25.67883 | 119.31438 | 25097 ft | 348 kts | 233° |
| 2026-05-08 13:44 | 25.66335 | 119.29591 | 24805 ft | 343 kts | 233° |
| 2026-05-08 13:44 | 25.64712 | 119.27666 | 24498 ft | 337 kts | 232° |
| 2026-05-08 13:44 | 25.63127 | 119.25790 | 24325 ft | 336 kts | 232° |
| 2026-05-08 13:45 | 25.61527 | 119.23899 | 24196 ft | 336 kts | 232° |
| 2026-05-08 13:45 | 25.59921 | 119.22008 | 23886 ft | 336 kts | 232° |
| 2026-05-08 13:45 | 25.58335 | 119.20144 | 23538 ft | 333 kts | 232° |
| 2026-05-08 13:45 | 25.56756 | 119.18289 | 23196 ft | 331 kts | 232° |
| 2026-05-08 13:46 | 25.55190 | 119.16451 | 22854 ft | 330 kts | 232° |
| 2026-05-08 13:46 | 25.53613 | 119.14601 | 22503 ft | 328 kts | 232° |
| 2026-05-08 13:46 | 25.52039 | 119.12758 | 22162 ft | 327 kts | 231° |
| 2026-05-08 13:46 | 25.50483 | 119.10937 | 21824 ft | 325 kts | 231° |
| 2026-05-08 13:47 | 25.48934 | 119.09123 | 21486 ft | 325 kts | 231° |
| 2026-05-08 13:47 | 25.47393 | 119.07320 | 21150 ft | 323 kts | 231° |
| 2026-05-08 13:47 | 25.45852 | 119.05517 | 20752 ft | 323 kts | 231° |
| 2026-05-08 13:47 | 25.44302 | 119.03703 | 20337 ft | 322 kts | 231° |
| 2026-05-08 13:48 | 25.42773 | 119.01914 | 19929 ft | 321 kts | 231° |
| 2026-05-08 13:48 | 25.41257 | 119.00143 | 19522 ft | 320 kts | 230° |
| 2026-05-08 13:48 | 25.39726 | 118.98356 | 19106 ft | 319 kts | 230° |
| 2026-05-08 13:48 | 25.38198 | 118.96572 | 18694 ft | 318 kts | 230° |
| 2026-05-08 13:49 | 25.36680 | 118.94803 | 18343 ft | 315 kts | 230° |
| 2026-05-08 13:49 | 25.35179 | 118.93053 | 17992 ft | 312 kts | 230° |
| 2026-05-08 13:49 | 25.33708 | 118.91333 | 17638 ft | 309 kts | 230° |
| 2026-05-08 13:49 | 25.32260 | 118.89589 | 17284 ft | 306 kts | 231° |
| 2026-05-08 13:50 | 25.30830 | 118.87851 | 16923 ft | 304 kts | 231° |
| 2026-05-08 13:50 | 25.28070 | 118.84499 | 16241 ft | 302 kts | 231° |
| 2026-05-08 13:50 | 25.26666 | 118.82800 | 15907 ft | 299 kts | 231° |
| 2026-05-08 13:51 | 25.25267 | 118.81106 | 15819 ft | 299 kts | 230° |
| 2026-05-08 13:51 | 25.23852 | 118.79397 | 15809 ft | 299 kts | 230° |
| 2026-05-08 13:51 | 25.22447 | 118.77696 | 15799 ft | 300 kts | 231° |
| 2026-05-08 13:51 | 25.21034 | 118.75987 | 15792 ft | 301 kts | 231° |
| 2026-05-08 13:52 | 25.19634 | 118.74294 | 15788 ft | 300 kts | 231° |
| 2026-05-08 13:52 | 25.18212 | 118.72577 | 15795 ft | 301 kts | 231° |
| 2026-05-08 13:52 | 25.16803 | 118.70877 | 15805 ft | 301 kts | 230° |
| 2026-05-08 13:52 | 25.15379 | 118.69159 | 15797 ft | 301 kts | 230° |
| 2026-05-08 13:53 | 25.13967 | 118.67457 | 15793 ft | 301 kts | 230° |
| 2026-05-08 13:53 | 25.10986 | 118.63864 | 15791 ft | 301 kts | 231° |
| 2026-05-08 13:53 | 25.09574 | 118.62166 | 15787 ft | 301 kts | 231° |
| 2026-05-08 13:54 | 25.08138 | 118.60474 | 15790 ft | 302 kts | 230° |
| 2026-05-08 13:54 | 25.06676 | 118.58794 | 15786 ft | 301 kts | 229° |
| 2026-05-08 13:54 | 25.05216 | 118.57121 | 15788 ft | 302 kts | 229° |